Time;durP1;ratioP1;P1;durP2;ratioP2;P2;SDS_P1;SDS_P2;PMS_P1;PMS_P2;Temp;Humidity;BMP_temperature;BMP_pressure;BME280_temperature;BME280_humidity;BME280_pressure;Samples;Min_cycle;Max_cycle;Signal;HPM_P1;HPM_P2
2022/12/05 00:01:41;;;;;;;;;;;;;;;2.52;51.50;101231.97;5069375;28;20044;-82
2022/12/05 00:04:11;;;;;;;18.40;10.30;;;;;;;2.69;50.45;101221.22;5086732;28;19991;-80
2022/12/05 00:06:42;;;;;;;17.50;10.05;;;;;;;2.73;50.29;101227.38;5072985;28;20162;-81
2022/12/05 00:09:12;;;;;;;20.60;10.65;;;;;;;2.73;50.53;101221.97;5072580;28;20048;-83
2022/12/05 00:11:41;;;;;;;18.20;10.40;;;;;;;2.74;50.48;101231.84;5088248;28;20309;-80
2022/12/05 00:14:10;;;;;;;19.58;10.48;;;;;;;2.74;50.50;101224.56;5036751;28;20052;-80
2022/12/05 00:16:39;;;;;;;20.25;11.88;;;;;;;2.75;50.63;101231.72;5059070;28;20044;-80
2022/12/05 00:19:10;;;;;;;19.33;11.20;;;;;;;2.75;50.52;101234.44;5071758;28;20066;-81
2022/12/05 00:21:38;;;;;;;21.55;12.70;;;;;;;2.74;50.61;101229.97;5089706;28;20060;-80
2022/12/05 00:24:11;;;;;;;23.33;12.30;;;;;;;2.76;50.72;101238.03;5067735;28;20040;-81
2022/12/05 00:26:39;;;;;;;22.23;11.98;;;;;;;2.73;50.46;101233.66;5088077;28;20366;-81
2022/12/05 00:29:07;;;;;;;18.27;11.02;;;;;;;2.74;50.63;101238.09;5070321;28;20048;-81
2022/12/05 00:31:35;;;;;;;20.70;11.70;;;;;;;2.72;50.38;101237.31;5089609;28;20043;-83
2022/12/05 00:34:03;;;;;;;20.90;11.57;;;;;;;2.74;50.63;101242.66;5084349;28;20036;-81
2022/12/05 00:36:33;;;;;;;23.27;12.02;;;;;;;2.72;50.58;101236.44;5071333;28;20123;-80
2022/12/05 00:39:03;;;;;;;21.80;12.98;;;;;;;2.70;50.60;101236.50;5074719;28;20044;-81
2022/12/05 00:41:32;;;;;;;23.83;12.90;;;;;;;2.70;50.67;101233.78;5092792;28;20040;-80
2022/12/05 00:44:02;;;;;;;22.92;12.23;;;;;;;2.71;50.64;101234.69;5092312;28;20032;-81
2022/12/05 00:46:31;;;;;;;19.08;12.10;;;;;;;2.70;50.75;101235.63;5071096;28;20316;-80
2022/12/05 00:49:00;;;;;;;22.55;11.77;;;;;;;2.70;50.58;101232.91;5088758;28;20068;-80
2022/12/05 00:51:30;;;;;;;21.77;12.02;;;;;;;2.68;50.79;101233.00;5091300;28;20044;-80
2022/12/05 00:54:01;;;;;;;20.60;11.52;;;;;;;2.70;50.68;101228.41;5078635;28;20157;-80
2022/12/05 00:56:30;;;;;;;19.60;12.18;;;;;;;2.70;50.73;101230.22;5083302;28;20056;-80
2022/12/05 00:59:00;;;;;;;22.85;12.73;;;;;;;2.69;51.04;101226.63;5078618;28;20081;-80
2022/12/05 01:01:31;;;;;;;22.65;12.45;;;;;;;2.70;50.67;101231.09;5076578;28;20085;-81
2022/12/05 01:04:01;;;;;;;20.52;11.43;;;;;;;2.70;50.79;101216.72;5078188;28;20467;-81
2022/12/05 01:06:29;;;;;;;20.58;11.25;;;;;;;2.70;50.91;101222.09;5089515;28;20029;-81
2022/12/05 01:08:58;;;;;;;21.00;12.00;;;;;;;2.70;50.81;101223.00;5092825;28;20067;-81
2022/12/05 01:11:27;;;;;;;19.55;11.85;;;;;;;2.72;50.74;101220.22;5092108;28;20036;-80
2022/12/05 01:13:55;;;;;;;20.67;11.98;;;;;;;2.72;50.72;101221.09;5077731;28;20048;-80
2022/12/05 01:16:27;;;;;;;23.15;12.70;;;;;;;2.75;50.99;101225.44;5095280;28;20047;-81
2022/12/05 01:18:56;;;;;;;23.75;13.30;;;;;;;2.71;50.87;101222.03;5075660;28;20048;-80
2022/12/05 01:21:24;;;;;;;19.75;11.50;;;;;;;2.72;50.58;101223.81;5081640;28;20051;-80
2022/12/05 01:23:52;;;;;;;23.98;13.02;;;;;;;2.73;50.77;101224.69;5081048;28;20076;-81
2022/12/05 01:26:22;;;;;;;24.10;12.55;;;;;;;2.72;50.86;101229.19;5073936;28;20047;-80
2022/12/05 01:28:50;;;;;;;22.52;12.93;;;;;;;2.74;50.79;101224.56;5074718;28;20054;-81
2022/12/05 01:31:22;;;;;;;21.27;12.48;;;;;;;2.75;50.98;101228.16;5076012;28;20085;-81
2022/12/05 01:33:55;;;;;;;21.70;12.63;;;;;;;2.72;50.91;101231.03;5087707;28;20067;-81
2022/12/05 01:36:24;;;;;;;21.13;12.18;;;;;;;2.72;50.80;101233.72;5072681;28;20048;-81
2022/12/05 01:38:53;;;;;;;19.90;11.88;;;;;;;2.73;50.74;101235.50;5074192;28;20529;-80
2022/12/05 01:41:23;;;;;;;22.52;11.68;;;;;;;2.74;50.87;101242.66;5068891;28;20040;-82
2022/12/05 01:44:00;;;;;;;23.10;11.82;;;;;;;2.76;51.20;101235.31;5092862;28;20066;-80
2022/12/05 01:46:30;;;;;;;24.52;12.27;;;;;;;2.72;50.80;101239.13;5074968;28;20074;-81
2022/12/05 01:49:03;;;;;;;24.27;12.20;;;;;;;2.74;50.87;101235.38;5092934;28;20126;-81
2022/12/05 01:51:32;;;;;;;;;;;;;;;2.51;51.90;101241.03;5075693;28;20131;-81
2022/12/05 01:54:01;;;;;;;19.35;12.05;;;;;;;2.68;50.92;101243.81;5071819;28;19939;-80
2022/12/05 01:56:32;;;;;;;18.50;10.50;;;;;;;2.72;50.81;101240.00;5091712;28;20046;-81
2022/12/05 01:59:02;;;;;;;23.45;12.30;;;;;;;2.73;50.79;101240.91;5074556;28;20053;-80
2022/12/05 02:01:30;;;;;;;20.90;11.38;;;;;;;2.72;50.85;101242.72;5074971;28;20052;-81
2022/12/05 02:04:03;;;;;;;18.92;10.98;;;;;;;2.74;51.14;101246.19;5088122;28;20040;-81
2022/12/05 02:06:32;;;;;;;18.48;11.65;;;;;;;2.70;51.01;101239.19;5091345;28;20067;-80
2022/12/05 02:09:01;;;;;;;20.70;12.02;;;;;;;2.71;50.89;101245.50;5074358;28;20093;-81
2022/12/05 02:11:31;;;;;;;19.17;11.75;;;;;;;2.74;50.94;101243.50;5070797;28;20040;-81
2022/12/05 02:14:16;;;;;;;20.70;11.35;;;;;;;2.75;51.38;101253.34;5069833;28;20067;-80
2022/12/05 02:16:55;;;;;;;19.85;11.25;;;;;;;2.74;51.13;101256.16;5071629;28;20040;-80
2022/12/05 02:19:56;;;;;;;21.27;11.13;;;;;;;2.76;51.37;101246.13;5070195;28;20075;-81
2022/12/05 02:22:54;;;;;;;22.05;12.43;;;;;;;2.76;51.35;101243.41;5064153;28;20048;-81
2022/12/05 02:25:49;;;;;;;21.60;11.70;;;;;;;2.75;51.46;101256.06;5070759;28;20044;-80
2022/12/05 02:28:36;;;;;;;21.48;12.10;;;;;;;2.76;51.22;101251.53;5064332;28;20419;-80
2022/12/05 02:31:10;;;;;;;17.83;10.32;;;;;;;2.76;51.34;101247.00;5070669;28;20112;-80
2022/12/05 02:33:44;;;;;;;19.88;11.27;;;;;;;2.79;50.95;101243.28;5092923;28;20054;-80
2022/12/05 02:36:18;;;;;;;19.67;11.75;;;;;;;2.79;50.99;101244.16;5075953;28;20117;-80
2022/12/05 02:38:54;;;;;;;20.95;12.13;;;;;;;2.78;51.30;101246.94;5077200;28;20048;-81
2022/12/05 02:41:27;;;;;;;21.10;11.80;;;;;;;2.78;51.13;101245.09;5075454;28;20044;-80
2022/12/05 02:44:00;;;;;;;21.10;12.43;;;;;;;2.79;50.99;101240.59;5071720;28;20043;-81
2022/12/05 02:46:32;;;;;;;19.33;11.43;;;;;;;2.79;50.79;101244.16;5085885;28;20394;-81
2022/12/05 02:49:04;;;;;;;20.75;11.65;;;;;;;2.77;51.04;101243.34;5073046;28;20052;-81
2022/12/05 02:51:38;;;;;;;21.33;13.15;;;;;;;2.78;50.91;101239.69;5075149;28;20044;-80
2022/12/05 02:54:12;;;;;;;21.45;11.95;;;;;;;2.78;51.06;101239.69;5072246;28;20040;-82
2022/12/05 02:56:43;;;;;;;22.63;13.27;;;;;;;2.76;50.97;101241.59;5074113;28;20047;-80
2022/12/05 02:59:11;;;;;;;22.90;13.00;;;;;;;2.76;50.92;101244.31;5072466;28;20530;-80
2022/12/05 03:01:43;;;;;;;25.08;13.35;;;;;;;2.76;50.90;101252.41;5091488;28;20044;-81
2022/12/05 03:04:13;;;;;;;22.88;13.13;;;;;;;2.75;50.99;101255.19;5088815;28;20097;-81
2022/12/05 03:06:45;;;;;;;21.42;12.55;;;;;;;2.74;51.16;101261.56;5071304;28;20586;-82
2022/12/05 03:09:19;;;;;;;19.75;12.25;;;;;;;2.75;51.03;101261.47;5074609;28;20036;-81
2022/12/05 03:11:50;;;;;;;21.92;12.60;;;;;;;2.74;50.99;101248.91;5088664;28;20106;-81
2022/12/05 03:14:23;;;;;;;21.58;12.30;;;;;;;2.76;51.09;101262.34;5072762;28;20048;-81
2022/12/05 03:16:56;;;;;;;23.08;12.57;;;;;;;2.74;51.21;101257.00;5088692;28;20097;-82
2022/12/05 03:19:27;;;;;;;19.83;12.50;;;;;;;2.76;51.09;101265.03;5068405;28;20041;-81
2022/12/05 03:22:01;;;;;;;21.33;11.98;;;;;;;2.78;51.18;101268.56;5071415;28;20066;-81
2022/12/05 03:24:30;;;;;;;21.15;11.55;;;;;;;2.77;51.14;101259.56;5082644;28;20054;-82
2022/12/05 03:27:07;;;;;;;20.70;11.93;;;;;;;2.80;50.97;101263.97;5091208;28;20102;-80
2022/12/05 03:29:43;;;;;;;21.55;11.85;;;;;;;2.79;51.30;101265.78;5085766;28;20028;-81
2022/12/05 03:32:21;;;;;;;24.58;13.05;;;;;;;2.81;51.27;101269.31;5069073;28;20554;-81
2022/12/05 03:35:02;;;;;;;21.17;12.15;;;;;;;2.82;51.31;101272.88;5090840;28;20048;-81
2022/12/05 03:37:39;;;;;;;21.45;11.98;;;;;;;2.82;51.17;101273.75;5072771;28;20525;-80
2022/12/05 03:40:14;;;;;;;20.52;11.65;;;;;;;2.81;51.13;101266.59;5091380;28;20043;-81
2022/12/05 03:42:51;;;;;;;19.30;11.20;;;;;;;2.84;51.29;101266.44;5071739;28;20045;-80
2022/12/05 03:45:27;;;;;;;23.05;13.15;;;;;;;2.82;51.32;101257.53;5066435;28;20076;-81
2022/12/05 03:48:05;;;;;;;20.70;11.98;;;;;;;2.83;51.16;101263.78;5073284;28;20546;-81
2022/12/05 03:50:37;;;;;;;20.98;12.52;;;;;;;2.81;51.06;101258.50;5072475;28;20050;-82
2022/12/05 03:53:09;;;;;;;22.23;12.20;;;;;;;2.81;51.18;101260.31;5071943;28;20044;-81
2022/12/05 03:55:54;;;;;;;19.58;11.07;;;;;;;2.84;51.17;101265.53;5066656;28;20479;-80
2022/12/05 03:58:28;;;;;;;20.85;11.68;;;;;;;2.85;51.23;101260.06;5070652;28;20135;-81
2022/12/05 04:00:58;;;;;;;22.45;13.00;;;;;;;2.86;51.11;101263.66;5068516;28;20095;-82
2022/12/05 04:03:38;;;;;;;19.85;11.45;;;;;;;2.87;51.21;101271.69;5086489;28;20109;-82
2022/12/05 04:06:13;;;;;;;18.73;11.90;;;;;;;2.87;51.28;101268.09;5070674;28;20051;-82
2022/12/05 04:08:47;;;;;;;19.35;11.60;;;;;;;2.87;51.24;101270.81;5070043;28;20074;-82
2022/12/05 04:11:18;;;;;;;18.70;11.15;;;;;;;2.87;51.14;101273.53;5073778;22;20075;-80
2022/12/05 04:13:51;;;;;;;21.55;11.40;;;;;;;2.87;51.18;101266.28;5047293;28;20036;-80
2022/12/05 04:19:18;;;;;;;18.52;10.95;;;;;;;2.88;51.71;101273.44;5033954;28;20124;-80
2022/12/05 04:21:48;;;;;;;19.67;11.32;;;;;;;2.89;51.40;101277.03;5028315;28;20098;-80
2022/12/05 04:27:22;;;;;;;17.45;10.15;;;;;;;2.90;51.54;101267.97;5025355;28;20042;-79
2022/12/05 04:29:58;;;;;;;20.88;10.85;;;;;;;2.90;51.46;101276.09;5024932;28;20416;-80
2022/12/05 04:32:38;;;;;;;18.10;10.32;;;;;;;2.92;51.66;101271.44;5048775;28;20052;-80
2022/12/05 04:35:14;;;;;;;20.17;11.20;;;;;;;2.93;51.76;101287.59;5022618;28;20157;-80
2022/12/05 04:37:45;;;;;;;19.25;10.70;;;;;;;2.94;51.32;101291.19;5033902;28;20346;-79
2022/12/05 04:40:20;;;;;;;17.42;10.60;;;;;;;2.96;51.65;101290.16;5001620;28;20047;-79
2022/12/05 04:42:51;;;;;;;18.88;11.25;;;;;;;2.96;51.50;101292.88;5033685;28;20037;-79
2022/12/05 04:45:22;;;;;;;19.05;10.65;;;;;;;2.96;51.34;101290.16;5019873;28;20053;-78
2022/12/05 04:47:54;;;;;;;15.15;10.52;;;;;;;2.97;51.29;101296.47;5044111;28;20068;-77
2022/12/05 04:50:27;;;;;;;19.50;11.25;;;;;;;2.99;51.36;101291.81;5049273;28;20056;-78
2022/12/05 04:53:00;;;;;;;18.00;10.63;;;;;;;2.96;51.33;101292.88;5045505;28;20040;-77
2022/12/05 04:55:31;;;;;;;16.17;10.00;;;;;;;2.97;51.24;101285.63;5030793;28;20037;-77
2022/12/05 04:58:06;;;;;;;15.63;9.98;;;;;;;2.99;51.46;101295.41;5050924;28;20119;-79
2022/12/05 05:00:42;;;;;;;15.75;10.25;;;;;;;2.98;51.64;101293.69;5035588;28;20041;-79
2022/12/05 05:03:16;;;;;;;18.48;10.43;;;;;;;2.98;51.40;101290.09;5032365;28;20451;-81
2022/12/05 05:05:48;;;;;;;18.98;11.13;;;;;;;2.96;51.24;101298.28;5032267;28;20136;-82
2022/12/05 05:08:18;;;;;;;17.60;10.48;;;;;;;2.92;51.17;101293.09;5025458;28;20463;-82
2022/12/05 05:10:55;;;;;;;17.25;10.18;;;;;;;2.87;51.27;101293.31;5032084;28;20053;-82
2022/12/05 05:13:23;;;;;;;16.05;10.27;;;;;;;2.80;51.42;101296.41;5031863;28;20098;-82
2022/12/05 05:15:51;;;;;;;16.90;10.27;;;;;;;2.74;51.49;101292.13;5030414;28;20056;-82
2022/12/05 05:18:20;;;;;;;16.20;9.65;;;;;;;2.69;51.71;101293.31;5029929;28;20049;-82
2022/12/05 05:20:50;;;;;;;17.20;9.88;;;;;;;2.67;51.61;101303.31;5034171;28;20040;-82
2022/12/05 05:23:18;;;;;;;16.65;10.23;;;;;;;2.59;51.75;101290.19;5044723;28;20049;-82
2022/12/05 05:25:45;;;;;;;17.52;10.15;;;;;;;2.57;51.83;101303.78;5036489;28;20045;-82
2022/12/05 05:28:13;;;;;;;18.65;10.43;;;;;;;2.54;51.93;101300.34;5022959;28;20415;-82
2022/12/05 05:30:41;;;;;;;15.93;10.05;;;;;;;2.51;52.01;101301.34;5029488;28;20033;-82
2022/12/05 05:33:12;;;;;;;17.25;10.15;;;;;;;2.50;52.27;101301.41;5032012;28;20103;-82
2022/12/05 05:35:40;;;;;;;18.63;10.93;;;;;;;2.47;51.89;101296.19;5031683;28;20037;-82
2022/12/05 05:38:09;;;;;;;16.17;10.02;;;;;;;2.46;52.15;101310.63;5020832;28;20441;-82
2022/12/05 05:40:37;;;;;;;17.55;10.63;;;;;;;2.43;52.16;101305.34;5024933;28;20454;-81
2022/12/05 05:43:05;;;;;;;15.15;9.52;;;;;;;2.41;52.32;101313.53;5022935;28;20132;-81
2022/12/05 05:45:33;;;;;;;17.75;10.73;;;;;;;2.39;52.22;101312.75;5023634;28;20063;-81
2022/12/05 05:48:01;;;;;;;17.98;10.68;;;;;;;2.39;52.22;101311.88;5031560;28;20494;-81
2022/12/05 05:50:29;;;;;;;16.88;10.57;;;;;;;2.36;52.20;101315.56;5029124;28;20045;-81
2022/12/05 05:52:57;;;;;;;18.13;10.65;;;;;;;2.36;52.38;101315.56;5021992;28;20045;-81
2022/12/05 05:55:27;;;;;;;16.23;10.02;;;;;;;2.36;52.59;101317.41;5024879;28;20045;-81
2022/12/05 05:57:55;;;;;;;15.85;10.13;;;;;;;2.36;52.64;101322.81;5022517;28;20136;-81
2022/12/05 06:00:23;;;;;;;16.88;10.25;;;;;;;2.36;52.56;101315.56;5022306;28;20049;-81
2022/12/05 06:02:51;;;;;;;20.13;10.95;;;;;;;2.35;52.56;101321.03;5029013;28;20447;-81
2022/12/05 06:05:19;;;;;;;19.38;10.55;;;;;;;2.33;52.49;101323.81;5047758;28;20083;-81
2022/12/05 06:07:47;;;;;;;16.67;10.23;;;;;;;2.33;52.65;101321.09;5027409;28;20106;-81
2022/12/05 06:10:15;;;;;;;19.13;10.98;;;;;;;2.34;52.53;101319.28;5016792;28;20045;-81
2022/12/05 06:12:45;;;;;;;17.63;10.68;;;;;;;2.33;52.88;101326.50;5022416;28;20091;-81
2022/12/05 06:15:13;;;;;;;16.77;10.23;;;;;;;2.33;52.70;101321.09;5028310;28;20500;-81
2022/12/05 06:17:41;;;;;;;18.42;10.60;;;;;;;2.33;52.40;101323.81;5028154;28;20048;-81
2022/12/05 06:20:10;;;;;;;16.58;10.32;;;;;;;2.34;52.58;101322.00;5027745;28;20049;-81
2022/12/05 06:22:38;;;;;;;16.13;10.60;;;;;;;2.33;52.81;101326.50;5025716;28;20140;-81
2022/12/05 06:25:07;;;;;;;15.77;9.80;;;;;;;2.35;52.52;101330.03;5030388;28;20204;-80
2022/12/05 06:27:35;;;;;;;16.13;9.45;;;;;;;2.34;52.59;101327.38;5026650;28;20044;-81
2022/12/05 06:30:06;;;;;;;15.07;9.30;;;;;;;2.34;52.86;101330.97;5000939;28;20407;-82
2022/12/05 06:32:34;;;;;;;17.40;10.27;;;;;;;2.32;52.52;101332.88;5023902;28;20077;-81
2022/12/05 06:35:07;;;;;;;16.17;10.23;;;;;;;2.33;52.46;101331.91;5020396;28;20041;-81
2022/12/05 06:37:37;;;;;;;17.27;9.82;;;;;;;2.33;52.62;101339.16;5023017;28;20076;-82
2022/12/05 06:40:06;;;;;;;14.02;9.13;;;;;;;2.33;52.52;101331.06;5025026;28;20052;-81
2022/12/05 06:42:34;;;;;;;15.23;9.18;;;;;;;2.32;52.62;101334.72;5028287;28;20053;-81
2022/12/05 06:45:02;;;;;;;15.90;9.82;;;;;;;2.33;52.64;101342.72;5030016;28;20049;-81
2022/12/05 06:47:32;;;;;;;13.60;9.10;;;;;;;2.33;52.66;101340.00;5024431;28;20057;-81
2022/12/05 06:50:00;;;;;;;15.80;10.20;;;;;;;2.32;52.54;101342.81;5029537;28;20045;-81
2022/12/05 06:52:28;;;;;;;16.25;9.43;;;;;;;2.32;52.69;101349.09;5025080;28;20053;-81
2022/12/05 06:54:58;;;;;;;14.90;10.02;;;;;;;2.31;52.64;101350.03;5032698;28;20523;-81
2022/12/05 06:57:28;;;;;;;17.38;10.43;;;;;;;2.32;52.89;101356.31;5024694;28;20048;-82
2022/12/05 07:01:37;;;;;;;15.50;9.82;;;;;;;2.29;52.71;101357.31;5027629;28;20044;-81
2022/12/05 07:02:44;;;;;;;15.68;9.90;;;;;;;2.27;52.47;101353.81;5028673;28;20045;-82
2022/12/05 07:05:12;;;;;;;15.88;9.30;;;;;;;2.26;52.65;101354.75;5026346;28;20050;-81
2022/12/05 07:07:40;;;;;;;14.77;9.18;;;;;;;2.26;52.55;101365.56;5029803;28;20498;-81
2022/12/05 07:10:08;;;;;;;16.85;9.88;;;;;;;2.25;52.76;101355.69;5033137;28;20041;-81
2022/12/05 07:12:36;;;;;;;16.50;9.73;;;;;;;2.24;52.69;101365.66;5021901;28;20132;-81
2022/12/05 07:15:05;;;;;;;17.95;11.07;;;;;;;2.22;52.71;101358.56;5029318;28;20048;-81
2022/12/05 07:17:36;;;;;;;16.65;10.77;;;;;;;2.23;52.62;101369.28;5015425;28;20084;-81
2022/12/05 07:20:06;;;;;;;20.92;10.93;;;;;;;2.22;52.81;101377.47;5030599;28;20048;-81
2022/12/05 07:22:36;;;;;;;18.33;10.95;;;;;;;2.20;52.57;101376.63;5035209;28;20069;-81
2022/12/05 07:25:04;;;;;;;17.33;10.90;;;;;;;2.18;52.66;101384.81;5020681;28;20141;-81
2022/12/05 07:27:33;;;;;;;19.25;10.95;;;;;;;2.17;52.63;101385.75;5036646;28;20518;-81
2022/12/05 07:30:01;;;;;;;19.55;11.07;;;;;;;2.16;52.85;101384.00;5032865;28;20041;-81
2022/12/05 07:32:32;;;;;;;17.38;10.70;;;;;;;2.17;52.86;101392.97;5018583;28;20045;-81
2022/12/05 07:35:00;;;;;;;16.17;9.70;;;;;;;2.16;52.86;101388.53;5025925;28;20073;-81
2022/12/05 07:37:29;;;;;;;15.90;9.93;;;;;;;2.17;52.88;101395.66;5027922;28;20042;-81
2022/12/05 07:39:57;;;;;;;16.60;10.07;;;;;;;2.16;53.02;101391.25;5013986;28;20049;-82
2022/12/05 07:42:25;;;;;;;16.42;10.38;;;;;;;2.16;52.77;101391.25;5027498;28;20055;-81
2022/12/05 07:44:54;;;;;;;16.13;9.85;;;;;;;2.16;53.01;101394.81;5024538;28;20044;-81
2022/12/05 07:47:22;;;;;;;16.60;9.95;;;;;;;2.17;53.08;101398.38;5029281;28;20045;-81
2022/12/05 07:49:50;;;;;;;15.52;9.73;;;;;;;2.17;53.14;101398.38;5040361;28;20037;-81
2022/12/05 07:52:19;;;;;;;13.25;9.05;;;;;;;2.17;52.91;101395.66;5023587;28;20053;-81
2022/12/05 07:54:49;;;;;;;15.02;9.77;;;;;;;2.18;53.03;101402.81;5031895;28;20124;-81
2022/12/05 07:57:17;;;;;;;17.00;10.07;;;;;;;2.17;52.79;101404.66;5031603;28;20080;-81
2022/12/05 07:59:48;;;;;;;14.45;8.95;;;;;;;2.18;53.28;101403.72;5029780;28;20045;-81
2022/12/05 08:02:16;;;;;;;16.25;10.32;;;;;;;2.17;53.09;101401.06;5025493;28;20140;-80
2022/12/05 08:04:44;;;;;;;14.68;9.65;;;;;;;2.17;53.29;101407.34;5022052;28;20519;-81
2022/12/05 08:07:13;;;;;;;17.48;10.13;;;;;;;2.16;52.97;101407.44;5026816;28;20061;-81
2022/12/05 08:09:41;;;;;;;15.45;9.60;;;;;;;2.17;53.04;101411.88;5021622;28;20088;-82
2022/12/05 08:12:11;;;;;;;17.10;9.88;;;;;;;2.18;53.09;101411.81;5027198;28;20128;-81
2022/12/05 08:14:40;;;;;;;15.32;9.43;;;;;;;2.18;53.23;101416.31;5025266;28;20128;-81
2022/12/05 08:17:08;;;;;;;15.50;9.05;;;;;;;2.17;53.04;101417.28;5023496;28;20045;-82
2022/12/05 08:19:38;;;;;;;16.13;9.23;;;;;;;2.16;53.01;101419.13;5024088;28;20047;-82
2022/12/05 08:22:05;;;;;;;15.57;9.15;;;;;;;2.17;53.05;101426.25;5023687;28;20327;-83
2022/12/05 08:24:33;;;;;;;15.15;9.02;;;;;;;2.17;53.24;101425.38;5029759;28;20068;-82
2022/12/05 08:27:01;;;;;;;16.10;9.77;;;;;;;2.17;52.96;101425.38;5030837;28;20041;-82
2022/12/05 08:29:30;;;;;;;15.80;9.27;;;;;;;2.17;53.30;101434.34;5034950;28;20125;-82
2022/12/05 08:31:58;;;;;;;16.33;8.73;;;;;;;2.16;53.22;101443.44;5041153;28;20091;-82
2022/12/05 08:34:26;;;;;;;14.20;8.93;;;;;;;2.16;53.14;101446.13;5027055;28;20428;-82
2022/12/05 08:36:54;;;;;;;15.57;10.05;;;;;;;2.15;53.16;101447.06;5029312;28;20045;-81
2022/12/05 08:39:22;;;;;;;14.20;8.55;;;;;;;2.15;52.83;101444.38;5032650;28;20372;-82
2022/12/05 08:41:50;;;;;;;14.05;9.00;;;;;;;2.15;52.83;101449.75;5035609;28;20056;-82
2022/12/05 08:44:18;;;;;;;14.07;8.70;;;;;;;2.15;53.18;101443.47;5025303;28;20054;-82
2022/12/05 08:46:49;;;;;;;13.05;8.00;;;;;;;2.15;53.33;101443.47;5026144;28;20041;-82
2022/12/05 08:49:17;;;;;;;13.50;8.48;;;;;;;2.13;53.30;101451.66;5028152;28;20065;-82
2022/12/05 08:51:47;;;;;;;13.07;8.48;;;;;;;2.14;53.04;101455.22;5049567;28;20040;-82
2022/12/05 08:54:17;;;;;;;14.18;8.90;;;;;;;2.14;53.13;101458.81;5051321;28;20044;-82
2022/12/05 08:56:45;;;;;;;14.02;9.15;;;;;;;2.14;53.26;101453.41;5032792;28;20131;-82
2022/12/05 08:59:13;;;;;;;13.85;8.68;;;;;;;2.14;53.11;101455.22;5025062;28;20085;-82
2022/12/05 09:01:42;;;;;;;12.43;8.30;;;;;;;2.14;53.24;101456.09;5026236;28;20036;-82
2022/12/05 09:04:13;;;;;;;15.90;9.50;;;;;;;2.16;53.25;101456.03;5026746;28;20049;-82
2022/12/05 09:06:41;;;;;;;13.48;8.13;;;;;;;2.15;53.29;101457.88;5038897;28;20041;-82
2022/12/05 09:09:11;;;;;;;13.68;8.65;;;;;;;2.17;53.34;101457.78;5036226;28;20041;-82
2022/12/05 09:11:44;;;;;;;14.02;8.95;;;;;;;2.17;53.54;101463.16;5024835;28;20572;-81
2022/12/05 09:14:13;;;;;;;14.82;9.15;;;;;;;2.18;53.30;101462.22;5021483;28;20044;-82
2022/12/05 09:16:44;;;;;;;13.73;8.68;;;;;;;2.18;53.32;101462.22;5017186;28;20038;-82
2022/12/05 09:19:16;;;;;;;14.63;8.75;;;;;;;2.19;53.43;101469.41;4995614;28;20100;-81
2022/12/05 09:21:44;;;;;;;15.07;9.05;;;;;;;2.17;53.33;101463.16;5021870;28;20293;-82
2022/12/05 09:24:13;;;;;;;16.63;9.00;;;;;;;2.18;53.54;101473.03;4991536;28;20045;-82
2022/12/05 09:26:42;;;;;;;13.77;8.57;;;;;;;2.18;53.43;101473.91;5031128;28;20487;-82
2022/12/05 09:29:12;;;;;;;14.63;8.82;;;;;;;2.18;52.98;101473.91;5028176;28;20490;-83
2022/12/05 09:31:46;;;;;;;12.55;8.27;;;;;;;2.17;53.20;101472.16;5024348;28;20041;-82
2022/12/05 09:34:16;;;;;;;14.23;8.98;;;;;;;2.18;53.20;101473.03;5041870;28;20455;-82
2022/12/05 09:36:50;;;;;;;15.18;9.77;;;;;;;2.16;53.25;101478.53;5014287;28;20132;-82
2022/12/05 09:39:25;;;;;;;12.05;8.10;;;;;;;2.16;53.27;101474.94;5019874;28;20046;-83
2022/12/05 09:42:17;;;;;;;13.93;8.15;;;;;;;2.19;53.66;101477.50;5017822;28;20070;-81
2022/12/05 09:45:07;;;;;;;12.85;8.60;;;;;;;2.16;53.65;101472.25;5024641;28;20051;-82
2022/12/05 09:47:44;;;;;;;13.35;8.18;;;;;;;2.16;53.54;101477.66;5010782;28;20045;-83
2022/12/05 09:50:18;;;;;;;14.38;8.88;;;;;;;2.16;53.63;101473.13;5026795;28;20144;-83
2022/12/05 09:52:58;;;;;;;13.38;8.25;;;;;;;2.17;54.03;101477.56;5019521;28;20091;-82
2022/12/05 09:55:38;;;;;;;13.70;8.10;;;;;;;2.17;53.79;101479.38;5038091;28;20392;-82
2022/12/05 09:58:18;;;;;;;14.73;8.25;;;;;;;2.17;53.79;101473.97;5019642;28;20671;-82
2022/12/05 10:00:49;;;;;;;12.05;8.05;;;;;;;2.16;53.56;101470.44;4998351;28;20041;-82
2022/12/05 10:03:25;;;;;;;13.73;8.25;;;;;;;2.18;53.91;101471.22;5023884;28;20045;-83
2022/12/05 10:06:08;;;;;;;13.20;8.60;;;;;;;2.19;53.71;101472.97;5021363;28;20052;-83
2022/12/05 10:08:49;;;;;;;12.35;7.53;;;;;;;2.20;54.22;101472.03;5014477;28;20057;-82
2022/12/05 10:11:23;;;;;;;10.65;7.47;;;;;;;2.21;53.76;101473.78;5065290;23;20043;-79
2022/12/05 10:14:00;;;;;;;10.20;7.00;;;;;;;2.24;53.82;101470.97;5102666;28;20062;-79
2022/12/05 10:16:33;;;;;;;11.05;7.20;;;;;;;2.25;53.95;101467.31;5089067;28;20044;-79
2022/12/05 10:19:06;;;;;;;12.88;7.25;;;;;;;2.22;53.87;101463.88;5107758;28;20039;-79
2022/12/05 10:21:41;;;;;;;9.35;6.50;;;;;;;2.27;54.15;101472.63;5099139;28;20055;-81
2022/12/05 10:24:15;;;;;;;10.60;7.03;;;;;;;2.29;54.09;101464.47;5087547;28;20461;-80
2022/12/05 10:26:45;;;;;;;12.13;6.82;;;;;;;2.30;54.01;101468.94;5096497;28;20069;-80
2022/12/05 10:29:22;;;;;;;10.55;7.03;;;;;;;2.32;54.17;101473.34;5100192;28;20046;-80
2022/12/05 10:31:54;;;;;;;9.40;6.55;;;;;;;2.33;53.93;101468.81;5096398;28;20039;-80
2022/12/05 10:34:29;;;;;;;9.43;6.27;;;;;;;2.35;54.27;101472.31;5101763;28;20051;-80
2022/12/05 10:37:09;;;;;;;11.07;6.97;;;;;;;2.38;54.29;101472.19;5094967;28;20039;-80
2022/12/05 10:39:37;;;;;;;10.48;6.88;;;;;;;2.37;54.02;101467.72;5104365;28;20123;-81
2022/12/05 10:42:11;;;;;;;10.00;6.95;;;;;;;2.41;54.04;101472.06;5098395;28;20054;-81
2022/12/05 10:44:40;;;;;;;10.20;7.60;;;;;;;2.41;54.02;101466.66;5098104;28;20044;-80
2022/12/05 10:47:09;;;;;;;10.85;7.25;;;;;;;2.42;53.96;101469.25;5096103;28;20032;-81
2022/12/05 10:49:38;;;;;;;9.98;7.15;;;;;;;2.44;53.86;101461.97;5098108;28;20055;-79
2022/12/05 10:52:09;;;;;;;10.98;7.75;;;;;;;2.46;53.96;101478.13;5111689;28;20042;-80
2022/12/05 10:54:45;;;;;;;10.55;7.40;;;;;;;2.46;54.00;101473.59;5098987;28;20044;-79
2022/12/05 10:57:21;;;;;;;10.40;7.35;;;;;;;2.44;53.88;101472.78;5095758;28;20067;-79
2022/12/05 10:59:50;;;;;;;12.80;7.78;;;;;;;2.43;54.01;101476.44;5093172;28;20032;-79
2022/12/05 11:02:24;;;;;;;9.98;7.40;;;;;;;2.46;53.84;101475.44;5091889;28;20047;-79
2022/12/05 11:04:53;;;;;;;10.10;7.18;;;;;;;2.44;53.48;101480.00;5099967;28;20449;-81
2022/12/05 11:07:29;;;;;;;10.90;6.82;;;;;;;2.46;53.56;101470.03;5090702;28;20464;-79
2022/12/05 11:10:00;;;;;;;10.30;7.22;;;;;;;2.44;53.72;101471.91;5113848;28;20047;-81
2022/12/05 11:12:30;;;;;;;10.77;6.90;;;;;;;2.43;53.78;101476.44;5098097;28;20059;-82
2022/12/05 11:15:01;;;;;;;11.43;6.90;;;;;;;2.43;53.97;101471.03;5089343;28;20040;-80
2022/12/05 11:17:36;;;;;;;10.10;6.45;;;;;;;2.45;54.17;101479.06;5083969;28;20379;-78
2022/12/05 11:20:36;;;;;;;9.75;6.55;;;;;;;2.44;54.56;101471.91;5092128;28;20138;-78
2022/12/05 11:23:22;;;;;;;9.63;6.72;;;;;;;2.44;54.34;101469.19;5091388;28;20078;-79
2022/12/05 11:25:50;;;;;;;8.23;6.20;;;;;;;2.42;53.82;101473.78;5046748;28;20075;-79
2022/12/05 11:28:30;;;;;;;9.48;6.43;;;;;;;2.46;54.38;101479.00;5108332;28;20044;-80
2022/12/05 11:31:01;;;;;;;9.88;6.22;;;;;;;2.45;53.91;101468.25;5090500;28;20054;-79
2022/12/05 11:33:31;;;;;;;8.82;6.50;;;;;;;2.46;54.03;101470.03;5091077;28;20039;-79
2022/12/05 11:36:13;;;;;;;10.05;6.80;;;;;;;2.46;54.17;101468.19;5087753;28;20054;-79
2022/12/05 11:38:43;;;;;;;9.25;6.20;;;;;;;2.46;53.89;101473.59;5091230;28;20516;-80
2022/12/05 11:41:31;;;;;;;9.27;6.28;;;;;;;2.46;53.91;101470.91;5093768;28;20069;-80
2022/12/05 11:44:14;;;;;;;8.30;6.03;;;;;;;2.45;53.93;101470.97;5091724;28;20048;-80
2022/12/05 11:46:58;;;;;;;8.38;6.15;;;;;;;2.45;53.80;101470.97;5112857;28;20042;-80
2022/12/05 11:49:44;;;;;;;9.07;6.10;;;;;;;2.43;54.28;101467.44;5112105;28;20043;-80